Time,TemperatureF,DewpointF,PressureIn,WindDirection,WindDirectionDegrees,WindSpeedMPH,WindSpeedGustMPH,Humidity,HourlyPrecipIn,Conditions,Clouds,dailyrainin,SoftwareType,DateUTC
2013-04-10 00:00:00,37.9,35.8,29.96,East,93,0.0,1.0,92,0.01,,,0.01,meteohub,2013-04-10 04:00:00,
2013-04-10 00:01:00,37.9,35.8,29.96,East,93,0.0,1.0,92,0.01,,,0.01,meteohub,2013-04-10 04:01:00,
2013-04-10 00:05:00,37.9,35.8,29.95,East,93,0.0,1.0,92,0.01,,,0.01,meteohub,2013-04-10 04:05:00,
2013-04-10 00:09:00,37.9,35.8,29.94,East,93,1.0,1.0,92,0.01,,,0.01,meteohub,2013-04-10 04:09:00,
2013-04-10 00:15:00,37.2,34.9,29.94,North,0,1.0,2.0,91,0.01,,,0.01,meteohub,2013-04-10 04:15:00,
2013-04-10 00:20:00,37.0,35.2,29.94,NE,48,1.0,3.0,93,0.01,,,0.01,meteohub,2013-04-10 04:20:00,
2013-04-10 00:25:00,37.2,35.6,29.94,ENE,70,0.0,3.0,94,0.01,,,0.01,meteohub,2013-04-10 04:25:00,
2013-04-10 00:30:00,37.8,36.1,29.95,ESE,118,1.0,3.0,94,0.01,,,0.01,meteohub,2013-04-10 04:30:00,
2013-04-10 00:35:00,37.9,36.7,29.95,ESE,118,0.0,2.0,95,0.01,,,0.01,meteohub,2013-04-10 04:35:00,
2013-04-10 00:40:00,37.6,35.8,29.96,ESE,118,0.0,2.0,93,0.02,,,0.02,meteohub,2013-04-10 04:40:00,
2013-04-10 00:45:00,37.4,35.8,29.96,ESE,118,0.0,2.0,94,0.01,,,0.02,meteohub,2013-04-10 04:45:00,
2013-04-10 00:50:00,37.4,35.8,29.96,ESE,118,0.0,2.0,94,0.02,,,0.03,meteohub,2013-04-10 04:50:00,
2013-04-10 00:55:00,37.6,36.3,29.96,ESE,118,0.0,2.0,95,0.03,,,0.04,meteohub,2013-04-10 04:55:00,
2013-04-10 01:00:00,37.8,36.5,29.97,ESE,118,0.0,0.0,95,0.05,,,0.06,meteohub,2013-04-10 05:00:00,
2013-04-10 01:05:00,37.6,36.0,29.96,ESE,118,1.0,0.0,94,0.06,,,0.07,meteohub,2013-04-10 05:05:00,
2013-04-10 01:11:00,37.4,35.8,29.97,ESE,118,0.0,1.0,94,0.10,,,0.11,meteohub,2013-04-10 05:11:00,
2013-04-10 01:16:00,37.8,36.5,29.97,ESE,118,0.0,1.0,95,0.12,,,0.13,meteohub,2013-04-10 05:16:00,
2013-04-10 01:21:00,37.9,36.9,29.97,ESE,118,0.0,1.0,96,0.13,,,0.14,meteohub,2013-04-10 05:21:00,
2013-04-10 01:26:00,38.1,37.0,29.98,ESE,118,0.0,1.0,96,0.14,,,0.15,meteohub,2013-04-10 05:26:00,
2013-04-10 01:32:00,38.5,37.4,29.99,ESE,118,0.0,0.0,96,0.15,,,0.16,meteohub,2013-04-10 05:32:00,
2013-04-10 01:37:00,38.5,37.4,29.99,ESE,118,0.0,2.0,96,0.16,,,0.17,meteohub,2013-04-10 05:37:00,
2013-04-10 01:42:00,38.5,37.4,30.00,ESE,118,0.0,2.0,96,0.16,,,0.18,meteohub,2013-04-10 05:42:00,
2013-04-10 01:47:00,38.7,37.4,30.00,ESE,118,1.0,1.0,95,0.17,,,0.19,meteohub,2013-04-10 05:47:00,
2013-04-10 01:52:00,38.5,37.2,29.99,NNE,27,0.0,2.0,95,0.19,,,0.22,meteohub,2013-04-10 05:52:00,
2013-04-10 01:57:00,38.1,36.9,29.99,NNW,343,1.0,2.0,95,0.19,,,0.23,meteohub,2013-04-10 05:57:00,
2013-04-10 02:02:00,38.1,36.9,29.99,North,355,3.0,3.0,95,0.20,,,0.26,meteohub,2013-04-10 06:02:00,
2013-04-10 02:07:00,37.9,36.7,29.99,North,5,0.0,3.0,95,0.19,,,0.28,meteohub,2013-04-10 06:07:00,
2013-04-10 02:13:00,38.1,37.0,29.98,ENE,57,0.0,3.0,96,0.17,,,0.29,meteohub,2013-04-10 06:13:00,
2013-04-10 02:18:00,38.3,37.2,29.97,ENE,57,0.0,3.0,96,0.18,,,0.31,meteohub,2013-04-10 06:18:00,
2013-04-10 02:23:00,38.3,37.2,29.94,ENE,61,0.0,2.0,96,0.19,,,0.33,meteohub,2013-04-10 06:23:00,
2013-04-10 02:28:00,37.6,36.3,29.94,NNW,345,1.0,1.0,95,0.18,,,0.34,meteohub,2013-04-10 06:28:00,
2013-04-10 02:34:00,37.8,36.7,29.94,NNW,345,0.0,2.0,96,0.19,,,0.35,meteohub,2013-04-10 06:34:00,
2013-04-10 02:39:00,37.8,36.7,29.94,ENE,78,0.0,2.0,96,0.19,,,0.36,meteohub,2013-04-10 06:39:00,
2013-04-10 02:44:00,37.9,36.9,29.94,ENE,78,0.0,2.0,96,0.18,,,0.36,meteohub,2013-04-10 06:44:00,
2013-04-10 02:49:00,37.8,36.7,29.94,ENE,78,0.0,2.0,96,0.18,,,0.38,meteohub,2013-04-10 06:49:00,
2013-04-10 02:54:00,37.8,36.7,29.95,ENE,78,0.0,1.0,96,0.16,,,0.38,meteohub,2013-04-10 06:54:00,
2013-04-10 02:59:00,37.9,36.9,29.95,ENE,78,0.0,1.0,96,0.13,,,0.38,meteohub,2013-04-10 06:59:00,
2013-04-10 03:04:00,38.3,37.2,29.94,ENE,78,0.0,0.0,96,0.13,,,0.39,meteohub,2013-04-10 07:04:00,
2013-04-10 03:10:00,37.9,36.9,29.94,NNW,347,2.0,2.0,96,0.12,,,0.40,meteohub,2013-04-10 07:10:00,
2013-04-10 03:15:00,37.8,36.7,29.94,NNW,344,1.0,2.0,96,0.10,,,0.41,meteohub,2013-04-10 07:15:00,
2013-04-10 03:20:00,37.8,36.7,29.94,NNW,346,0.0,3.0,96,0.07,,,0.41,meteohub,2013-04-10 07:20:00,
2013-04-10 03:25:00,37.9,36.9,29.94,NNW,346,0.0,3.0,96,0.08,,,0.43,meteohub,2013-04-10 07:25:00,
2013-04-10 03:30:00,38.1,37.4,29.94,NNW,346,0.0,2.0,97,0.08,,,0.43,meteohub,2013-04-10 07:30:00,
2013-04-10 03:35:00,38.1,37.4,29.94,NNW,346,0.0,1.0,97,0.08,,,0.44,meteohub,2013-04-10 07:35:00,
2013-04-10 03:40:00,38.5,37.8,29.93,NE,43,0.0,1.0,97,0.08,,,0.45,meteohub,2013-04-10 07:40:00,
2013-04-10 03:45:00,38.7,37.9,29.93,NE,43,0.0,1.0,97,0.07,,,0.45,meteohub,2013-04-10 07:45:00,
2013-04-10 03:51:00,38.3,37.2,29.93,NE,43,0.0,1.0,96,0.08,,,0.46,meteohub,2013-04-10 07:51:00,
2013-04-10 03:56:00,38.1,37.0,29.93,NE,43,0.0,1.0,96,0.07,,,0.46,meteohub,2013-04-10 07:56:00,
2013-04-10 04:01:00,38.1,37.0,29.93,NE,43,0.0,0.0,96,0.08,,,0.46,meteohub,2013-04-10 08:01:00,
2013-04-10 04:06:00,37.9,36.9,29.93,NE,43,0.0,0.0,96,0.07,,,0.47,meteohub,2013-04-10 08:06:00,
2013-04-10 04:11:00,37.8,36.7,29.93,NE,43,0.0,0.0,96,0.07,,,0.47,meteohub,2013-04-10 08:11:00,
2013-04-10 04:16:00,37.6,36.5,29.93,NE,43,0.0,0.0,96,0.06,,,0.47,meteohub,2013-04-10 08:16:00,
2013-04-10 04:21:00,37.6,36.5,29.93,NE,43,0.0,0.0,96,0.06,,,0.48,meteohub,2013-04-10 08:21:00,
2013-04-10 04:26:00,37.6,36.5,29.93,NE,43,0.0,0.0,96,0.05,,,0.48,meteohub,2013-04-10 08:26:00,
2013-04-10 04:32:00,37.8,36.7,29.93,NE,43,0.0,0.0,96,0.04,,,0.48,meteohub,2013-04-10 08:32:00,
2013-04-10 04:37:00,37.8,37.0,29.93,NE,43,0.0,0.0,97,0.04,,,0.48,meteohub,2013-04-10 08:37:00,
2013-04-10 04:42:00,37.6,36.5,29.93,NE,43,0.0,0.0,96,0.03,,,0.48,meteohub,2013-04-10 08:42:00,
2013-04-10 04:47:00,37.2,36.1,29.93,NE,43,0.0,0.0,96,0.04,,,0.49,meteohub,2013-04-10 08:47:00,
2013-04-10 04:52:00,37.0,36.0,29.92,NE,43,0.0,0.0,96,0.03,,,0.49,meteohub,2013-04-10 08:52:00,
2013-04-10 04:57:00,37.0,36.0,29.92,NE,43,0.0,0.0,96,0.03,,,0.49,meteohub,2013-04-10 08:57:00,
2013-04-10 05:02:00,37.0,36.0,29.92,NE,43,0.0,0.0,96,0.02,,,0.49,meteohub,2013-04-10 09:02:00,
2013-04-10 05:07:00,37.0,36.0,29.92,NE,43,0.0,0.0,96,0.02,,,0.49,meteohub,2013-04-10 09:07:00,
2013-04-10 05:12:00,36.9,35.8,29.92,NNE,32,0.0,2.0,96,0.03,,,0.50,meteohub,2013-04-10 09:12:00,
2013-04-10 05:18:00,37.0,36.0,29.92,NNE,32,0.0,2.0,96,0.02,,,0.50,meteohub,2013-04-10 09:18:00,
2013-04-10 05:23:00,36.9,35.8,29.92,NNE,32,0.0,2.0,96,0.03,,,0.51,meteohub,2013-04-10 09:23:00,
2013-04-10 05:28:00,36.7,35.6,29.92,NNE,32,0.0,0.0,96,0.03,,,0.51,meteohub,2013-04-10 09:28:00,
2013-04-10 05:33:00,36.9,36.1,29.91,NNE,32,0.0,0.0,97,0.04,,,0.52,meteohub,2013-04-10 09:33:00,
2013-04-10 05:38:00,37.0,36.3,29.91,NNE,32,0.0,0.0,97,0.04,,,0.52,meteohub,2013-04-10 09:38:00,
2013-04-10 05:43:00,37.0,36.3,29.91,NNE,32,0.0,1.0,97,0.04,,,0.52,meteohub,2013-04-10 09:43:00,
2013-04-10 05:48:00,37.0,36.3,29.91,NNE,32,0.0,1.0,97,0.03,,,0.52,meteohub,2013-04-10 09:48:00,
2013-04-10 05:53:00,37.2,36.5,29.91,NNE,32,0.0,1.0,97,0.04,,,0.53,meteohub,2013-04-10 09:53:00,
2013-04-10 05:58:00,37.8,37.0,29.92,NE,37,0.0,0.0,97,0.04,,,0.53,meteohub,2013-04-10 09:58:00,
2013-04-10 06:03:00,37.9,37.2,29.92,NE,37,0.0,0.0,97,0.04,,,0.53,meteohub,2013-04-10 10:03:00,
2013-04-10 06:08:00,38.1,37.4,29.92,NE,37,0.0,1.0,97,0.03,,,0.53,meteohub,2013-04-10 10:08:00,
2013-04-10 06:14:00,37.8,37.0,29.93,NNE,27,0.0,1.0,97,0.03,,,0.53,meteohub,2013-04-10 10:14:00,
2013-04-10 06:19:00,37.2,36.1,29.93,NNE,27,0.0,1.0,96,0.02,,,0.53,meteohub,2013-04-10 10:19:00,
2013-04-10 06:24:00,37.2,36.1,29.93,NNE,27,0.0,1.0,96,0.02,,,0.53,meteohub,2013-04-10 10:24:00,
2013-04-10 06:29:00,37.2,36.5,29.93,NNE,27,0.0,1.0,97,0.02,,,0.53,meteohub,2013-04-10 10:29:00,
2013-04-10 06:34:00,37.0,36.3,29.94,NNE,27,0.0,0.0,97,0.01,,,0.53,meteohub,2013-04-10 10:34:00,
2013-04-10 06:39:00,37.2,36.5,29.94,NNE,27,0.0,0.0,97,0.01,,,0.53,meteohub,2013-04-10 10:39:00,
2013-04-10 06:44:00,37.2,36.5,29.94,NNE,27,0.0,0.0,97,0.01,,,0.53,meteohub,2013-04-10 10:44:00,
2013-04-10 06:49:00,37.2,36.5,29.94,NNE,27,0.0,0.0,97,0.00,,,0.53,meteohub,2013-04-10 10:49:00,
2013-04-10 06:55:00,36.5,35.4,29.95,NNE,27,0.0,0.0,96,0.00,,,0.53,meteohub,2013-04-10 10:55:00,
2013-04-10 07:00:00,36.3,35.2,29.95,NNE,27,0.0,0.0,96,0.00,,,0.53,meteohub,2013-04-10 11:00:00,
2013-04-10 07:05:00,36.5,35.8,29.95,NNE,27,0.0,0.0,97,0.00,,,0.53,meteohub,2013-04-10 11:05:00,
2013-04-10 07:10:00,36.7,36.0,29.95,NNE,27,0.0,0.0,97,0.00,,,0.53,meteohub,2013-04-10 11:10:00,
2013-04-10 07:15:00,37.0,36.3,29.95,NNE,27,0.0,0.0,97,0.00,,,0.53,meteohub,2013-04-10 11:15:00,
2013-04-10 07:20:00,37.2,36.5,29.94,NNE,27,0.0,0.0,97,0.00,,,0.53,meteohub,2013-04-10 11:20:00,
2013-04-10 07:26:00,37.4,36.7,29.94,NNE,27,0.0,0.0,97,0.00,,,0.53,meteohub,2013-04-10 11:26:00,
2013-04-10 07:31:00,37.4,36.7,29.95,NNE,27,0.0,0.0,97,0.00,,,0.53,meteohub,2013-04-10 11:31:00,
2013-04-10 07:36:00,37.2,36.5,29.95,NNE,27,0.0,0.0,97,0.00,,,0.53,meteohub,2013-04-10 11:36:00,
2013-04-10 07:41:00,37.0,36.3,29.95,NNE,27,0.0,0.0,97,0.00,,,0.53,meteohub,2013-04-10 11:41:00,
2013-04-10 07:46:00,37.2,36.5,29.94,East,93,0.0,0.0,97,0.00,,,0.53,meteohub,2013-04-10 11:46:00,
2013-04-10 07:51:00,37.8,37.0,29.94,East,93,0.0,2.0,97,0.00,,,0.53,meteohub,2013-04-10 11:51:00,
2013-04-10 07:57:00,37.2,36.5,29.95,NE,37,0.0,2.0,97,0.00,,,0.53,meteohub,2013-04-10 11:57:00,
2013-04-10 08:02:00,37.2,36.5,29.96,NE,37,0.0,2.0,97,0.00,,,0.53,meteohub,2013-04-10 12:02:00,
2013-04-10 08:07:00,37.8,37.0,29.96,NE,37,0.0,2.0,97,0.00,,,0.53,meteohub,2013-04-10 12:07:00,
2013-04-10 08:12:00,38.1,37.4,29.96,NE,37,0.0,1.0,97,0.00,,,0.53,meteohub,2013-04-10 12:12:00,
2013-04-10 08:17:00,38.7,37.9,29.96,NE,37,0.0,0.0,97,0.00,,,0.53,meteohub,2013-04-10 12:17:00,
2013-04-10 08:22:00,38.8,38.1,29.96,NE,37,0.0,1.0,97,0.00,,,0.53,meteohub,2013-04-10 12:22:00,
2013-04-10 08:27:00,38.8,38.1,29.96,NE,37,0.0,1.0,97,0.00,,,0.53,meteohub,2013-04-10 12:27:00,
2013-04-10 08:33:00,38.8,38.1,29.96,NE,37,0.0,1.0,97,0.00,,,0.53,meteohub,2013-04-10 12:33:00,
2013-04-10 08:38:00,38.5,37.8,29.96,NE,37,0.0,1.0,97,0.00,,,0.53,meteohub,2013-04-10 12:38:00,
2013-04-10 08:43:00,38.3,37.6,29.96,NE,37,0.0,0.0,97,0.00,,,0.53,meteohub,2013-04-10 12:43:00,
2013-04-10 08:48:00,38.7,37.9,29.96,NE,37,0.0,1.0,97,0.00,,,0.53,meteohub,2013-04-10 12:48:00,
2013-04-10 08:53:00,38.7,37.9,29.96,NE,37,0.0,1.0,97,0.00,,,0.53,meteohub,2013-04-10 12:53:00,
2013-04-10 08:58:00,39.4,38.7,29.96,NE,37,0.0,1.0,97,0.00,,,0.53,meteohub,2013-04-10 12:58:00,
2013-04-10 09:03:00,40.1,39.4,29.96,NE,37,0.0,1.0,97,0.00,,,0.53,meteohub,2013-04-10 13:03:00,
2013-04-10 09:09:00,40.5,39.9,29.96,NE,37,0.0,0.0,98,0.00,,,0.53,meteohub,2013-04-10 13:09:00,
2013-04-10 09:14:00,40.6,40.1,29.96,NE,37,0.0,0.0,98,0.00,,,0.53,meteohub,2013-04-10 13:14:00,
2013-04-10 09:19:00,40.8,40.1,29.96,NE,37,0.0,0.0,97,0.00,,,0.53,meteohub,2013-04-10 13:19:00,
2013-04-10 09:24:00,40.8,40.1,29.96,NE,37,0.0,0.0,97,0.00,,,0.53,meteohub,2013-04-10 13:24:00,
2013-04-10 09:30:00,40.6,39.9,29.96,NE,37,0.0,0.0,97,0.00,,,0.53,meteohub,2013-04-10 13:30:00,
2013-04-10 09:35:00,40.6,39.9,29.96,NE,37,0.0,0.0,97,0.00,,,0.53,meteohub,2013-04-10 13:35:00,
2013-04-10 09:40:00,41.0,40.5,29.96,NE,37,0.0,0.0,98,0.00,,,0.53,meteohub,2013-04-10 13:40:00,
2013-04-10 09:45:00,41.2,40.6,29.96,NE,37,0.0,0.0,98,0.00,,,0.53,meteohub,2013-04-10 13:45:00,
2013-04-10 09:50:00,41.2,40.5,29.96,NE,37,0.0,0.0,97,0.00,,,0.53,meteohub,2013-04-10 13:50:00,
2013-04-10 09:55:00,41.2,40.5,29.97,NE,37,0.0,0.0,97,0.00,,,0.53,meteohub,2013-04-10 13:55:00,
2013-04-10 10:00:00,41.4,40.6,29.97,NE,37,0.0,0.0,97,0.00,,,0.53,meteohub,2013-04-10 14:00:00,
2013-04-10 10:06:00,41.4,40.6,29.97,NE,37,0.0,0.0,97,0.00,,,0.53,meteohub,2013-04-10 14:06:00,
2013-04-10 10:11:00,41.4,40.6,29.97,NE,37,0.0,0.0,97,0.00,,,0.53,meteohub,2013-04-10 14:11:00,
2013-04-10 10:16:00,41.2,40.5,29.97,NE,37,0.0,0.0,97,0.00,,,0.53,meteohub,2013-04-10 14:16:00,
2013-04-10 10:21:00,41.4,40.6,29.97,NE,37,0.0,0.0,97,0.00,,,0.53,meteohub,2013-04-10 14:21:00,
2013-04-10 10:26:00,41.4,40.6,29.97,NE,37,0.0,0.0,97,0.00,,,0.53,meteohub,2013-04-10 14:26:00,
2013-04-10 10:31:00,41.4,40.6,29.98,NE,37,0.0,0.0,97,0.00,,,0.53,meteohub,2013-04-10 14:31:00,
2013-04-10 10:37:00,42.4,41.7,29.97,NE,37,0.0,0.0,97,0.00,,,0.53,meteohub,2013-04-10 14:37:00,
2013-04-10 10:42:00,43.2,42.6,29.97,NE,37,0.0,0.0,98,0.00,,,0.53,meteohub,2013-04-10 14:42:00,
2013-04-10 10:47:00,43.9,43.3,29.97,NE,37,0.0,0.0,98,0.00,,,0.53,meteohub,2013-04-10 14:47:00,
2013-04-10 10:52:00,44.1,43.5,29.97,NE,37,0.0,0.0,98,0.00,,,0.53,meteohub,2013-04-10 14:52:00,
2013-04-10 10:57:00,44.2,43.7,29.97,NE,37,0.0,0.0,98,0.00,,,0.53,meteohub,2013-04-10 14:57:00,
2013-04-10 11:02:00,44.4,43.9,29.97,NE,37,0.0,0.0,98,0.00,,,0.53,meteohub,2013-04-10 15:02:00,
2013-04-10 11:07:00,43.9,43.3,29.97,NE,37,0.0,0.0,98,0.00,,,0.53,meteohub,2013-04-10 15:07:00,
2013-04-10 11:12:00,44.2,43.7,29.97,ENE,70,0.0,0.0,98,0.00,,,0.53,meteohub,2013-04-10 15:12:00,
2013-04-10 11:17:00,45.0,44.4,29.96,ENE,76,1.0,1.0,98,0.00,,,0.53,meteohub,2013-04-10 15:17:00,
2013-04-10 11:22:00,45.3,44.8,29.96,East,80,0.0,1.0,98,0.00,,,0.53,meteohub,2013-04-10 15:22:00,
2013-04-10 11:27:00,45.1,44.6,29.97,East,80,0.0,1.0,98,0.00,,,0.53,meteohub,2013-04-10 15:27:00,
2013-04-10 11:33:00,45.3,44.8,29.97,East,80,0.0,1.0,98,0.00,,,0.53,meteohub,2013-04-10 15:33:00,
2013-04-10 11:38:00,44.8,44.2,29.97,NE,55,0.0,1.0,98,0.00,,,0.53,meteohub,2013-04-10 15:38:00,
2013-04-10 11:43:00,44.4,43.9,29.97,NE,56,0.0,1.0,98,0.00,,,0.53,meteohub,2013-04-10 15:43:00,
2013-04-10 11:48:00,44.2,43.5,29.97,ESE,111,0.0,1.0,97,0.00,,,0.53,meteohub,2013-04-10 15:48:00,
2013-04-10 11:53:00,44.6,43.9,29.96,NNW,338,2.0,2.0,97,0.00,,,0.53,meteohub,2013-04-10 15:53:00,
2013-04-10 11:58:00,45.0,44.2,29.97,West,261,1.0,4.0,97,0.00,,,0.53,meteohub,2013-04-10 15:58:00,
2013-04-10 12:04:00,45.3,44.6,29.96,North,349,3.0,4.0,97,0.00,,,0.53,meteohub,2013-04-10 16:04:00,
2013-04-10 12:09:00,45.7,45.0,29.96,NNW,332,1.0,4.0,97,0.00,,,0.53,meteohub,2013-04-10 16:09:00,
2013-04-10 12:14:00,46.0,45.3,29.95,NW,324,3.0,4.0,97,0.00,,,0.53,meteohub,2013-04-10 16:14:00,
2013-04-10 12:19:00,46.4,45.7,29.95,SE,124,0.0,3.0,97,0.00,,,0.53,meteohub,2013-04-10 16:19:00,
2013-04-10 12:24:00,46.2,44.8,29.97,SE,124,0.0,3.0,95,0.00,,,0.53,meteohub,2013-04-10 16:24:00,
2013-04-10 12:29:00,46.0,44.6,29.97,SE,124,0.0,3.0,95,0.00,,,0.53,meteohub,2013-04-10 16:29:00,
2013-04-10 12:34:00,46.0,44.4,29.96,SE,124,0.0,1.0,94,0.00,,,0.53,meteohub,2013-04-10 16:34:00,
2013-04-10 12:39:00,45.7,43.5,29.96,NNW,341,0.0,0.0,92,0.00,,,0.53,meteohub,2013-04-10 16:39:00,
2013-04-10 12:44:00,45.7,44.4,29.95,NNW,341,0.0,3.0,95,0.00,,,0.53,meteohub,2013-04-10 16:44:00,
2013-04-10 12:49:00,45.7,43.7,29.96,NNW,341,0.0,3.0,93,0.00,,,0.53,meteohub,2013-04-10 16:49:00,
2013-04-10 12:54:00,45.9,44.4,29.96,North,359,0.0,3.0,95,0.00,,,0.53,meteohub,2013-04-10 16:54:00,
2013-04-10 13:00:00,46.6,45.0,29.96,NNW,338,0.0,2.0,94,0.00,,,0.53,meteohub,2013-04-10 17:00:00,
2013-04-10 13:05:00,47.1,45.7,29.96,NNW,338,0.0,3.0,95,0.00,,,0.53,meteohub,2013-04-10 17:05:00,
2013-04-10 13:10:00,47.8,46.2,29.96,NNW,338,0.0,3.0,94,0.00,,,0.53,meteohub,2013-04-10 17:10:00,
2013-04-10 13:15:00,48.0,46.0,29.97,NNW,338,0.0,3.0,93,0.00,,,0.53,meteohub,2013-04-10 17:15:00,
2013-04-10 13:20:00,48.2,46.0,29.96,East,84,0.0,2.0,92,0.00,,,0.53,meteohub,2013-04-10 17:20:00,
2013-04-10 13:25:00,48.4,46.2,29.96,East,84,0.0,2.0,92,0.00,,,0.53,meteohub,2013-04-10 17:25:00,
2013-04-10 13:30:00,48.2,45.3,29.97,East,83,0.0,2.0,90,0.00,,,0.53,meteohub,2013-04-10 17:30:00,
2013-04-10 13:36:00,47.1,44.4,29.98,NNW,333,0.0,3.0,90,0.00,,,0.53,meteohub,2013-04-10 17:36:00,
2013-04-10 13:41:00,47.1,45.0,29.98,NNW,332,0.0,3.0,92,0.00,,,0.53,meteohub,2013-04-10 17:41:00,
2013-04-10 13:46:00,47.5,45.3,29.98,NNW,334,0.0,3.0,92,0.00,,,0.53,meteohub,2013-04-10 17:46:00,
2013-04-10 13:51:00,47.8,45.9,29.98,NNW,334,0.0,3.0,93,0.00,,,0.53,meteohub,2013-04-10 17:51:00,
2013-04-10 13:56:00,48.0,44.4,29.98,NNW,328,4.0,4.0,87,0.00,,,0.53,meteohub,2013-04-10 17:56:00,
2013-04-10 14:01:00,48.2,44.6,29.97,NW,318,3.0,5.0,87,0.00,,,0.53,meteohub,2013-04-10 18:01:00,
2013-04-10 14:07:00,48.0,44.4,29.98,NNW,332,1.0,5.0,87,0.00,,,0.53,meteohub,2013-04-10 18:07:00,
2013-04-10 14:12:00,47.5,43.5,29.99,NNW,343,4.0,5.0,86,0.00,,,0.53,meteohub,2013-04-10 18:12:00,
2013-04-10 14:17:00,47.5,44.4,30.00,North,355,0.0,7.0,89,0.00,,,0.53,meteohub,2013-04-10 18:17:00,
2013-04-10 14:22:00,47.8,44.4,29.99,NNW,332,1.0,7.0,88,0.00,,,0.53,meteohub,2013-04-10 18:22:00,
2013-04-10 14:27:00,48.0,45.0,29.99,SSE,160,0.0,7.0,89,0.00,,,0.53,meteohub,2013-04-10 18:27:00,
2013-04-10 14:32:00,48.0,44.4,29.96,West,273,0.0,6.0,87,0.00,,,0.53,meteohub,2013-04-10 18:32:00,
2013-04-10 14:38:00,48.4,45.0,29.96,NW,325,0.0,7.0,88,0.00,,,0.53,meteohub,2013-04-10 18:38:00,
2013-04-10 14:43:00,48.6,45.7,29.94,NW,325,1.0,7.0,90,0.01,,,0.54,meteohub,2013-04-10 18:43:00,
2013-04-10 14:48:00,48.9,46.0,29.92,ESE,114,1.0,7.0,90,0.01,,,0.54,meteohub,2013-04-10 18:48:00,
2013-04-10 14:53:00,49.1,46.0,29.89,ESE,114,0.0,2.0,89,0.01,,,0.54,meteohub,2013-04-10 18:53:00,
2013-04-10 14:58:00,49.3,46.2,29.88,ESE,114,0.0,2.0,89,0.01,,,0.54,meteohub,2013-04-10 18:58:00,
2013-04-10 15:03:00,48.7,44.1,29.89,ESE,114,0.0,2.0,84,0.01,,,0.54,meteohub,2013-04-10 19:03:00,
2013-04-10 15:08:00,48.4,44.1,29.90,ESE,112,0.0,1.0,85,0.01,,,0.54,meteohub,2013-04-10 19:08:00,
2013-04-10 15:14:00,47.1,42.8,29.93,NNW,333,3.0,3.0,85,0.01,,,0.54,meteohub,2013-04-10 19:14:00,
2013-04-10 15:19:00,47.1,44.6,29.93,NNW,345,0.0,3.0,91,0.01,,,0.54,meteohub,2013-04-10 19:19:00,
2013-04-10 15:24:00,47.7,44.6,29.93,NNW,345,0.0,3.0,89,0.01,,,0.54,meteohub,2013-04-10 19:24:00,
2013-04-10 15:29:00,48.0,44.6,29.92,NNW,342,1.0,3.0,88,0.01,,,0.54,meteohub,2013-04-10 19:29:00,
2013-04-10 15:34:00,48.4,45.0,29.91,NNW,332,0.0,3.0,88,0.01,,,0.54,meteohub,2013-04-10 19:34:00,
2013-04-10 15:39:00,48.6,44.8,29.92,NNW,332,0.0,1.0,87,0.01,,,0.54,meteohub,2013-04-10 19:39:00,
2013-04-10 15:45:00,48.9,45.9,29.92,East,85,0.0,1.0,89,0.00,,,0.54,meteohub,2013-04-10 19:45:00,
2013-04-10 15:50:00,49.3,45.3,29.91,East,85,0.0,2.0,86,0.00,,,0.54,meteohub,2013-04-10 19:50:00,
2013-04-10 15:55:00,49.1,45.1,29.91,East,85,0.0,2.0,86,0.00,,,0.54,meteohub,2013-04-10 19:55:00,
2013-04-10 16:00:00,49.3,45.3,29.91,NNW,346,0.0,3.0,86,0.00,,,0.54,meteohub,2013-04-10 20:00:00,
2013-04-10 16:05:00,49.1,44.8,29.92,NNW,336,1.0,4.0,85,0.00,,,0.54,meteohub,2013-04-10 20:05:00,
2013-04-10 16:11:00,49.5,44.8,29.92,NNW,341,1.0,4.0,84,0.00,,,0.54,meteohub,2013-04-10 20:11:00,
2013-04-10 16:16:00,49.5,44.6,29.92,NNW,336,0.0,4.0,83,0.00,,,0.54,meteohub,2013-04-10 20:16:00,
2013-04-10 16:21:00,49.8,45.1,29.92,NNW,336,0.0,3.0,84,0.00,,,0.54,meteohub,2013-04-10 20:21:00,
2013-04-10 16:26:00,50.4,45.3,29.91,NNW,336,0.0,3.0,83,0.00,,,0.54,meteohub,2013-04-10 20:26:00,
2013-04-10 16:32:00,50.4,45.1,29.92,NNW,333,5.0,5.0,82,0.00,,,0.54,meteohub,2013-04-10 20:32:00,
2013-04-10 16:37:00,50.5,44.6,29.92,NNW,341,4.0,6.0,80,0.00,,,0.54,meteohub,2013-04-10 20:37:00,
2013-04-10 16:42:00,50.4,44.8,29.91,NNW,341,3.0,7.0,81,0.00,,,0.54,meteohub,2013-04-10 20:42:00,
2013-04-10 16:47:00,50.2,44.6,29.91,North,351,3.0,7.0,81,0.00,,,0.54,meteohub,2013-04-10 20:47:00,
2013-04-10 16:52:00,50.0,44.4,29.91,NW,324,2.0,7.0,81,0.00,,,0.54,meteohub,2013-04-10 20:52:00,
2013-04-10 16:57:00,49.5,43.9,29.91,NNW,336,3.0,6.0,81,0.00,,,0.54,meteohub,2013-04-10 20:57:00,
2013-04-10 17:03:00,49.3,44.1,29.90,NNW,334,2.0,6.0,82,0.00,,,0.54,meteohub,2013-04-10 21:03:00,
2013-04-10 17:08:00,48.6,43.3,29.91,NNW,333,1.0,6.0,82,0.00,,,0.54,meteohub,2013-04-10 21:08:00,
2013-04-10 17:13:00,48.4,43.7,29.91,NNW,331,1.0,6.0,84,0.00,,,0.54,meteohub,2013-04-10 21:13:00,
2013-04-10 17:18:00,48.2,43.3,29.90,NNW,331,0.0,6.0,83,0.00,,,0.54,meteohub,2013-04-10 21:18:00,
2013-04-10 17:23:00,48.2,43.9,29.90,NNW,331,1.0,4.0,85,0.00,,,0.54,meteohub,2013-04-10 21:23:00,
2013-04-10 17:28:00,48.2,43.9,29.90,NNW,328,0.0,4.0,85,0.00,,,0.54,meteohub,2013-04-10 21:28:00,
2013-04-10 17:33:00,47.7,43.0,29.90,NNW,328,0.0,2.0,84,0.00,,,0.54,meteohub,2013-04-10 21:33:00,
2013-04-10 17:38:00,47.5,42.8,29.90,NNW,328,0.0,1.0,84,0.00,,,0.54,meteohub,2013-04-10 21:38:00,
2013-04-10 17:44:00,46.9,43.0,29.91,NNW,328,0.0,1.0,86,0.00,,,0.54,meteohub,2013-04-10 21:44:00,
2013-04-10 17:49:00,46.8,43.3,29.90,East,90,1.0,0.0,88,0.00,,,0.54,meteohub,2013-04-10 21:49:00,
2013-04-10 17:54:00,46.8,43.7,29.90,East,91,0.0,1.0,89,0.00,,,0.54,meteohub,2013-04-10 21:54:00,
2013-04-10 17:59:00,45.7,41.4,29.90,NE,49,1.0,2.0,85,0.00,,,0.54,meteohub,2013-04-10 21:59:00,
2013-04-10 18:04:00,44.6,41.2,29.91,NE,47,0.0,2.0,88,0.00,,,0.54,meteohub,2013-04-10 22:04:00,
2013-04-10 18:09:00,44.1,41.5,29.91,NE,47,0.0,2.0,91,0.00,,,0.54,meteohub,2013-04-10 22:09:00,
2013-04-10 18:14:00,43.9,41.7,29.90,NE,48,0.0,2.0,92,0.00,,,0.54,meteohub,2013-04-10 22:14:00,
2013-04-10 18:19:00,43.9,41.7,29.88,East,85,0.0,2.0,92,0.00,,,0.54,meteohub,2013-04-10 22:19:00,
2013-04-10 18:24:00,43.5,40.8,29.88,East,85,0.0,1.0,90,0.00,,,0.54,meteohub,2013-04-10 22:24:00,
2013-04-10 18:30:00,42.6,40.1,29.88,NNW,343,2.0,2.0,91,0.00,,,0.54,meteohub,2013-04-10 22:30:00,
2013-04-10 18:35:00,42.1,39.9,29.88,NNW,341,0.0,3.0,92,0.00,,,0.54,meteohub,2013-04-10 22:35:00,
2013-04-10 18:40:00,41.7,39.9,29.89,ESE,111,1.0,3.0,93,0.00,,,0.54,meteohub,2013-04-10 22:40:00,
2013-04-10 18:45:00,42.1,40.8,29.91,ESE,111,0.0,3.0,95,0.00,,,0.54,meteohub,2013-04-10 22:45:00,
2013-04-10 18:50:00,42.3,40.6,29.92,ESE,111,1.0,2.0,94,0.00,,,0.54,meteohub,2013-04-10 22:50:00,
2013-04-10 18:56:00,42.6,41.4,29.89,ESE,113,0.0,2.0,95,0.02,,,0.56,meteohub,2013-04-10 22:56:00,
2013-04-10 19:01:00,42.1,40.3,29.89,East,101,0.0,2.0,93,0.03,,,0.57,meteohub,2013-04-10 23:01:00,
2013-04-10 19:06:00,41.7,40.1,29.90,NNW,348,1.0,2.0,94,0.03,,,0.57,meteohub,2013-04-10 23:06:00,
2013-04-10 19:11:00,41.0,39.2,29.91,NNW,348,2.0,2.0,93,0.05,,,0.59,meteohub,2013-04-10 23:11:00,
2013-04-10 19:16:00,41.2,39.9,29.91,NNW,343,1.0,3.0,95,0.07,,,0.61,meteohub,2013-04-10 23:16:00,
2013-04-10 19:21:00,41.5,40.5,29.90,NW,315,2.0,3.0,96,0.07,,,0.61,meteohub,2013-04-10 23:21:00,
2013-04-10 19:26:00,41.2,39.9,29.89,NW,320,0.0,3.0,95,0.08,,,0.62,meteohub,2013-04-10 23:26:00,
2013-04-10 19:31:00,41.4,40.3,29.89,NW,320,0.0,3.0,96,0.08,,,0.62,meteohub,2013-04-10 23:31:00,
2013-04-10 19:36:00,41.5,40.5,29.89,NW,320,0.0,3.0,96,0.09,,,0.63,meteohub,2013-04-10 23:36:00,
2013-04-10 19:41:00,41.9,41.2,29.89,NW,320,0.0,1.0,97,0.09,,,0.63,meteohub,2013-04-10 23:41:00,
2013-04-10 19:46:00,41.7,40.6,29.89,NW,320,0.0,0.0,96,0.09,,,0.63,meteohub,2013-04-10 23:46:00,
2013-04-10 19:52:00,41.5,40.5,29.88,NW,320,0.0,0.0,96,0.08,,,0.63,meteohub,2013-04-10 23:52:00,
2013-04-10 19:57:00,41.9,41.2,29.89,NW,320,0.0,0.0,97,0.06,,,0.63,meteohub,2013-04-10 23:57:00,
2013-04-10 20:02:00,41.7,40.6,29.90,NW,320,0.0,0.0,96,0.07,,,0.64,meteohub,2013-04-11 00:02:00,
2013-04-10 20:07:00,41.7,40.6,29.90,NW,320,0.0,0.0,96,0.07,,,0.01,meteohub,2013-04-11 00:07:00,
2013-04-10 20:12:00,41.5,40.5,29.91,NW,320,0.0,0.0,96,0.07,,,0.02,meteohub,2013-04-11 00:12:00,
2013-04-10 20:17:00,40.6,39.0,29.91,NW,320,0.0,1.0,94,0.06,,,0.03,meteohub,2013-04-11 00:17:00,
2013-04-10 20:22:00,40.5,39.4,29.92,NW,320,1.0,1.0,96,0.05,,,0.03,meteohub,2013-04-11 00:22:00,
2013-04-10 20:27:00,40.8,39.7,29.91,SE,127,1.0,2.0,96,0.06,,,0.04,meteohub,2013-04-11 00:27:00,
2013-04-10 20:32:00,41.2,40.5,29.91,SE,127,0.0,2.0,97,0.07,,,0.05,meteohub,2013-04-11 00:32:00,
2013-04-10 20:37:00,40.3,39.0,29.91,SE,127,0.0,2.0,95,0.06,,,0.05,meteohub,2013-04-11 00:37:00,
2013-04-10 20:42:00,39.7,38.5,29.92,SE,127,0.0,2.0,95,0.06,,,0.05,meteohub,2013-04-11 00:42:00,
2013-04-10 20:48:00,39.7,38.7,29.91,SE,127,0.0,0.0,96,0.06,,,0.05,meteohub,2013-04-11 00:48:00,
2013-04-10 20:53:00,39.9,38.8,29.91,SE,127,0.0,1.0,96,0.06,,,0.05,meteohub,2013-04-11 00:53:00,
2013-04-10 20:58:00,40.1,39.0,29.92,West,274,0.0,1.0,96,0.06,,,0.06,meteohub,2013-04-11 00:58:00,
2013-04-10 21:03:00,40.3,39.6,29.91,West,274,0.0,1.0,97,0.06,,,0.06,meteohub,2013-04-11 01:03:00,
2013-04-10 21:08:00,40.1,39.0,29.91,West,275,2.0,2.0,96,0.05,,,0.06,meteohub,2013-04-11 01:08:00,
2013-04-10 21:13:00,41.0,40.3,29.91,NNW,342,2.0,5.0,97,0.04,,,0.06,meteohub,2013-04-11 01:13:00,
2013-04-10 21:18:00,41.5,40.8,29.91,NNW,344,2.0,5.0,97,0.03,,,0.06,meteohub,2013-04-11 01:18:00,
2013-04-10 21:23:00,41.5,40.8,29.91,NNW,333,0.0,5.0,97,0.02,,,0.06,meteohub,2013-04-11 01:23:00,
2013-04-10 21:28:00,41.7,41.0,29.91,NNW,329,0.0,4.0,97,0.02,,,0.06,meteohub,2013-04-11 01:28:00,
2013-04-10 21:33:00,41.5,40.8,29.91,NNW,329,0.0,3.0,97,0.01,,,0.06,meteohub,2013-04-11 01:33:00,
2013-04-10 21:38:00,41.4,40.3,29.91,NNW,329,0.0,3.0,96,0.01,,,0.06,meteohub,2013-04-11 01:38:00,
2013-04-10 21:43:00,41.2,40.1,29.92,NNW,329,0.0,2.0,96,0.01,,,0.06,meteohub,2013-04-11 01:43:00,
2013-04-10 21:48:00,41.2,40.1,29.92,NNW,329,0.0,2.0,96,0.02,,,0.07,meteohub,2013-04-11 01:48:00,
2013-04-10 21:53:00,41.2,40.1,29.92,NNW,329,0.0,1.0,96,0.02,,,0.07,meteohub,2013-04-11 01:53:00,
2013-04-10 21:59:00,40.8,39.7,29.91,NNW,329,0.0,1.0,96,0.02,,,0.08,meteohub,2013-04-11 01:59:00,
2013-04-10 22:04:00,40.6,39.6,29.91,NNW,329,0.0,1.0,96,0.02,,,0.08,meteohub,2013-04-11 02:04:00,
2013-04-10 22:09:00,40.8,40.1,29.90,NNW,329,0.0,1.0,97,0.02,,,0.08,meteohub,2013-04-11 02:09:00,
2013-04-10 22:14:00,41.0,40.3,29.90,NNW,329,0.0,0.0,97,0.03,,,0.09,meteohub,2013-04-11 02:14:00,
2013-04-10 22:20:00,40.8,39.7,29.91,NNW,329,0.0,1.0,96,0.03,,,0.09,meteohub,2013-04-11 02:20:00,
2013-04-10 22:25:00,40.6,39.6,29.91,NNW,329,0.0,1.0,96,0.03,,,0.09,meteohub,2013-04-11 02:25:00,
2013-04-10 22:30:00,39.9,38.7,29.91,NNW,329,0.0,0.0,95,0.03,,,0.09,meteohub,2013-04-11 02:30:00,
2013-04-10 22:35:00,39.7,38.7,29.91,NNW,329,0.0,1.0,96,0.03,,,0.09,meteohub,2013-04-11 02:35:00,
2013-04-10 22:40:00,39.9,39.2,29.91,NNW,329,0.0,0.0,97,0.02,,,0.09,meteohub,2013-04-11 02:40:00,
2013-04-10 22:45:00,40.3,39.6,29.91,NNW,329,0.0,0.0,97,0.03,,,0.10,meteohub,2013-04-11 02:45:00,
2013-04-10 22:50:00,39.9,38.8,29.91,NNW,329,0.0,0.0,96,0.03,,,0.10,meteohub,2013-04-11 02:50:00,
2013-04-10 22:55:00,39.9,38.8,29.92,NNW,329,0.0,0.0,96,0.02,,,0.10,meteohub,2013-04-11 02:55:00,
2013-04-10 23:00:00,39.9,39.2,29.91,NNW,329,0.0,0.0,97,0.03,,,0.11,meteohub,2013-04-11 03:00:00,
2013-04-10 23:05:00,40.3,39.6,29.92,NNW,329,0.0,0.0,97,0.02,,,0.11,meteohub,2013-04-11 03:05:00,
2013-04-10 23:10:00,39.7,38.7,29.92,NNW,329,0.0,0.0,96,0.02,,,0.11,meteohub,2013-04-11 03:10:00,
2013-04-10 23:15:00,39.6,38.5,29.92,NNW,329,0.0,0.0,96,0.02,,,0.11,meteohub,2013-04-11 03:15:00,
2013-04-10 23:21:00,39.7,39.0,29.92,NNW,329,0.0,0.0,97,0.03,,,0.12,meteohub,2013-04-11 03:21:00,
2013-04-10 23:26:00,39.7,39.0,29.92,NNW,329,0.0,0.0,97,0.03,,,0.12,meteohub,2013-04-11 03:26:00,
2013-04-10 23:31:00,39.6,38.5,29.92,NNW,329,0.0,0.0,96,0.03,,,0.12,meteohub,2013-04-11 03:31:00,
2013-04-10 23:36:00,39.0,37.9,29.92,NNW,329,0.0,0.0,96,0.04,,,0.13,meteohub,2013-04-11 03:36:00,
2013-04-10 23:42:00,39.0,37.9,29.92,NNW,329,0.0,0.0,96,0.04,,,0.13,meteohub,2013-04-11 03:42:00,
2013-04-10 23:47:00,39.0,37.9,29.92,NNW,329,0.0,0.0,96,0.04,,,0.14,meteohub,2013-04-11 03:47:00,
2013-04-10 23:52:00,39.0,37.9,29.92,NNW,329,0.0,0.0,96,0.04,,,0.14,meteohub,2013-04-11 03:52:00,
2013-04-10 23:57:00,38.8,37.8,29.92,NNW,329,0.0,0.0,96,0.03,,,0.14,meteohub,2013-04-11 03:57:00,